Time;durP1;ratioP1;P1;durP2;ratioP2;P2;SDS_P1;SDS_P2;PMS_P1;PMS_P2;Temp;Humidity;BMP_temperature;BMP_pressure;BME280_temperature;BME280_humidity;BME280_pressure;Samples;Min_cycle;Max_cycle;Signal;HPM_P1;HPM_P2
2021/07/27 00:01:09;;;;;;;7.22;4.20;;;;;;;;;;8293374;28;20045;-72
2021/07/27 00:05:14;;;;;;;8.77;4.10;;;;;;;;;;8245593;28;20484;-73
2021/07/27 00:09:19;;;;;;;5.05;3.40;;;;;;;;;;8226367;28;20387;-73
2021/07/27 00:13:24;;;;;;;8.57;4.10;;;;;;;;;;8209785;28;20322;-72
2021/07/27 00:17:29;;;;;;;9.18;4.40;;;;;;;;;;8209483;28;20384;-73
2021/07/27 00:21:34;;;;;;;7.00;4.15;;;;;;;;;;8192620;28;20420;-72
2021/07/27 00:25:39;;;;;;;5.68;3.63;;;;;;;;;;8209352;28;20449;-73
2021/07/27 00:29:45;;;;;;;7.50;4.13;;;;;;;;;;8227055;28;20499;-73
2021/07/27 00:33:50;;;;;;;7.47;3.92;;;;;;;;;;8224866;28;20504;-73
2021/07/27 00:38:07;;;;;;;7.20;3.85;;;;;;;;;;8208532;28;20108;-73
2021/07/27 00:42:14;;;;;;;10.82;4.78;;;;;;;;;;8225572;28;20479;-72
2021/07/27 00:46:19;;;;;;;5.82;3.38;;;;;;;;;;8226500;28;20468;-72
2021/07/27 00:50:24;;;;;;;7.30;4.55;;;;;;;;;;8192561;28;20472;-72
2021/07/27 00:54:29;;;;;;;6.88;4.03;;;;;;;;;;8226030;28;20108;-73
2021/07/27 00:58:34;;;;;;;10.63;4.80;;;;;;;;;;8226287;28;20045;-74
2021/07/27 01:02:39;;;;;;;8.88;4.70;;;;;;;;;;8225861;28;20476;-74
2021/07/27 01:06:44;;;;;;;8.15;5.53;;;;;;;;;;8208316;28;20575;-74
2021/07/27 01:10:49;;;;;;;9.30;5.55;;;;;;;;;;8226909;28;20468;-75
2021/07/27 01:14:54;;;;;;;8.32;4.93;;;;;;;;;;8211694;28;20365;-76
2021/07/27 01:19:06;;;;;;;9.10;4.93;;;;;;;;;;8227040;28;20350;-75
2021/07/27 01:40:48;;;;;;;6.07;4.20;;;;;;;;;;8158905;28;20465;-74
2021/07/27 01:44:53;;;;;;;7.88;4.90;;;;;;;;;;8161078;28;20361;-75
2021/07/27 01:48:58;;;;;;;8.77;5.57;;;;;;;;;;8168749;28;20469;-75
2021/07/27 01:53:04;;;;;;;9.98;5.25;;;;;;;;;;8167448;28;20495;-74
2021/07/27 01:57:11;;;;;;;9.95;5.57;;;;;;;;;;8166683;28;20347;-74
2021/07/27 02:01:19;;;;;;;8.93;5.05;;;;;;;;;;8167497;28;20458;-74
2021/07/27 02:05:24;;;;;;;7.53;4.93;;;;;;;;;;8164280;28;20369;-75
2021/07/27 02:09:32;;;;;;;8.93;5.22;;;;;;;;;;8166952;28;20503;-75
2021/07/27 02:13:45;;;;;;;12.90;5.18;;;;;;;;;;8165944;28;20381;-75
2021/07/27 02:17:50;;;;;;;8.10;5.95;;;;;;;;;;8164380;28;20417;-76
2021/07/27 02:21:55;;;;;;;11.48;5.65;;;;;;;;;;8148136;28;20378;-75
2021/07/27 02:26:02;;;;;;;9.70;5.70;;;;;;;;;;8164955;28;20377;-75
2021/07/27 02:30:08;;;;;;;10.40;6.07;;;;;;;;;;8182660;28;20421;-75
2021/07/27 02:34:13;;;;;;;9.43;6.38;;;;;;;;;;8196136;28;20331;-75
2021/07/27 02:38:19;;;;;;;15.10;6.55;;;;;;;;;;8197177;28;20377;-75
2021/07/27 02:42:24;;;;;;;10.20;6.75;;;;;;;;;;8196998;28;20469;-75
2021/07/27 02:46:28;;;;;;;10.88;6.95;;;;;;;;;;8196327;28;20353;-75
2021/07/27 02:50:36;;;;;;;12.77;6.90;;;;;;;;;;8196868;28;20477;-75
2021/07/27 02:54:41;;;;;;;12.80;7.07;;;;;;;;;;8211151;28;20445;-75
2021/07/27 02:58:46;;;;;;;11.80;7.20;;;;;;;;;;8194565;28;20046;-75
2021/07/27 03:02:53;;;;;;;12.75;7.60;;;;;;;;;;8195557;28;20065;-74
2021/07/27 03:06:58;;;;;;;13.13;7.03;;;;;;;;;;8196455;28;20385;-75
2021/07/27 03:11:03;;;;;;;11.48;7.05;;;;;;;;;;8198708;28;20076;-75
2021/07/27 03:15:09;;;;;;;10.18;6.78;;;;;;;;;;8195921;28;20034;-75
2021/07/27 03:19:14;;;;;;;12.75;7.07;;;;;;;;;;8195999;28;20389;-74
2021/07/27 03:23:30;;;;;;;10.93;6.70;;;;;;;;;;8193793;28;20050;-75
2021/07/27 03:27:39;;;;;;;11.68;8.15;;;;;;;;;;8195732;28;20494;-74
2021/07/27 03:31:43;;;;;;;12.93;6.30;;;;;;;;;;8194603;28;20481;-75
2021/07/27 03:35:49;;;;;;;12.15;6.65;;;;;;;;;;8194089;28;20449;-75
2021/07/27 03:39:53;;;;;;;14.23;7.03;;;;;;;;;;8195275;28;20068;-74
2021/07/27 03:43:58;;;;;;;22.75;15.27;;;;;;;;;;8194331;28;20449;-73
2021/07/27 03:48:03;;;;;;;13.18;9.43;;;;;;;;;;8195438;28;20467;-74
2021/07/27 03:52:08;;;;;;;9.40;6.20;;;;;;;;;;8193799;28;20049;-74
2021/07/27 03:56:14;;;;;;;11.93;6.72;;;;;;;;;;8195821;28;20441;-74
2021/07/27 04:00:19;;;;;;;10.98;5.68;;;;;;;;;;8193495;28;20073;-74
2021/07/27 04:04:23;;;;;;;8.60;5.93;;;;;;;;;;8195692;28;20373;-74
2021/07/27 04:08:29;;;;;;;7.13;5.25;;;;;;;;;;8193580;28;20393;-74
2021/07/27 04:12:37;;;;;;;8.73;5.90;;;;;;;;;;8196919;28;20104;-74
2021/07/27 04:16:42;;;;;;;;;;;;;;;;;;8194848;28;20481;-74
2021/07/27 04:20:46;;;;;;;7.95;5.38;;;;;;;;;;8194502;28;20268;-74
2021/07/27 04:24:49;;;;;;;12.38;5.65;;;;;;;;;;8193216;28;20345;-73
2021/07/27 04:28:56;;;;;;;6.95;5.35;;;;;;;;;;8204164;28;20383;-73
2021/07/27 04:33:01;;;;;;;11.35;5.68;;;;;;;;;;8227289;28;20358;-74
2021/07/27 04:37:05;;;;;;;6.05;4.75;;;;;;;;;;8226789;28;20336;-73
2021/07/27 04:41:11;;;;;;;11.45;5.07;;;;;;;;;;8225995;28;20072;-74
2021/07/27 04:47:54;;;;;;;10.18;5.55;;;;;;;;;;8182221;27;20998;-74
2021/07/27 04:52:00;;;;;;;9.15;5.50;;;;;;;;;;8286787;28;20354;-73
2021/07/27 04:56:05;;;;;;;6.40;5.13;;;;;;;;;;8285886;28;20345;-73
2021/07/27 05:00:27;;;;;;;10.65;6.18;;;;;;;;;;8286747;28;20459;-73
2021/07/27 05:04:36;;;;;;;9.50;6.45;;;;;;;;;;8285815;28;20365;-73
2021/07/27 05:08:42;;;;;;;10.00;5.82;;;;;;;;;;8286291;28;20104;-73
2021/07/27 05:12:47;;;;;;;10.20;6.40;;;;;;;;;;8283933;28;20372;-74
2021/07/27 05:16:53;;;;;;;10.95;7.82;;;;;;;;;;8283370;28;20443;-73
2021/07/27 05:22:03;;;;;;;12.40;8.00;;;;;;;;;;8275226;27;1952751;-73
2021/07/27 05:26:08;;;;;;;11.90;7.93;;;;;;;;;;8352913;28;20488;-72
2021/07/27 05:30:13;;;;;;;10.50;7.07;;;;;;;;;;8351639;28;20485;-73
2021/07/27 05:34:18;;;;;;;15.32;7.63;;;;;;;;;;8352175;28;20047;-73
2021/07/27 05:38:23;;;;;;;18.42;9.05;;;;;;;;;;8352112;28;20367;-73
2021/07/27 05:42:27;;;;;;;17.08;9.40;;;;;;;;;;8275355;28;20497;-73
2021/07/27 05:46:33;;;;;;;16.08;9.07;;;;;;;;;;8351423;28;20079;-74
2021/07/27 05:50:38;;;;;;;16.70;9.43;;;;;;;;;;8317841;28;20434;-73
2021/07/27 05:54:44;;;;;;;18.40;9.90;;;;;;;;;;8332340;28;20404;-72
2021/07/27 05:58:49;;;;;;;13.77;8.27;;;;;;;;;;8333085;28;20482;-73
2021/07/27 06:02:54;;;;;;;14.65;8.65;;;;;;;;;;8351049;28;20040;-73
2021/07/27 06:06:58;;;;;;;14.55;8.52;;;;;;;;;;8333695;28;20484;-72
2021/07/27 06:11:07;;;;;;;15.77;8.20;;;;;;;;;;8351416;28;20484;-72
2021/07/27 06:15:12;;;;;;;15.85;7.35;;;;;;;;;;8332588;28;20463;-73
2021/07/27 06:19:17;;;;;;;13.27;7.63;;;;;;;;;;8350288;28;20342;-73
2021/07/27 06:23:22;;;;;;;12.80;7.68;;;;;;;;;;8331866;28;20451;-73
2021/07/27 06:27:27;;;;;;;12.40;7.93;;;;;;;;;;8349656;28;20346;-73
2021/07/27 06:31:33;;;;;;;15.07;6.60;;;;;;;;;;8321965;28;20373;-73
2021/07/27 06:35:38;;;;;;;12.05;5.95;;;;;;;;;;8328313;28;20048;-72
2021/07/27 06:39:48;;;;;;;11.05;6.20;;;;;;;;;;8289954;28;20351;-72
2021/07/27 06:43:53;;;;;;;8.45;6.00;;;;;;;;;;8262302;28;20494;-72
2021/07/27 06:47:57;;;;;;;6.97;4.35;;;;;;;;;;8327106;28;20470;-73
2021/07/27 06:52:03;;;;;;;6.85;4.25;;;;;;;;;;8308815;28;20497;-73
2021/07/27 06:56:09;;;;;;;8.00;4.35;;;;;;;;;;8327877;28;20469;-73
2021/07/27 07:00:14;;;;;;;6.38;4.28;;;;;;;;;;8309301;28;20473;-74
2021/07/27 07:04:19;;;;;;;4.90;3.55;;;;;;;;;;8307536;28;20385;-72
2021/07/27 07:08:24;;;;;;;5.75;3.75;;;;;;;;;;8308936;28;20059;-72
2021/07/27 07:12:29;;;;;;;4.82;3.47;;;;;;;;;;8308703;28;20397;-72
2021/07/27 07:16:34;;;;;;;6.22;3.38;;;;;;;;;;8307610;28;20140;-73
2021/07/27 07:20:39;;;;;;;7.82;3.60;;;;;;;;;;8325607;28;20390;-73
2021/07/27 07:24:45;;;;;;;9.32;3.53;;;;;;;;;;8290148;28;20344;-73
2021/07/27 07:28:49;;;;;;;9.63;3.65;;;;;;;;;;8291826;28;20363;-73
2021/07/27 07:32:54;;;;;;;6.15;3.78;;;;;;;;;;8326236;28;20423;-73
2021/07/27 07:37:00;;;;;;;5.28;3.55;;;;;;;;;;8308704;28;20470;-73
2021/07/27 07:41:59;;;;;;;7.22;3.80;;;;;;;;;;8204443;27;1249177;-75
2021/07/27 07:46:05;;;;;;;5.72;2.47;;;;;;;;;;8185071;28;20044;-74
2021/07/27 07:50:12;;;;;;;4.78;2.42;;;;;;;;;;8305829;28;20052;-76
2021/07/27 07:54:18;;;;;;;5.00;2.40;;;;;;;;;;8286519;28;20164;-76
2021/07/27 07:58:23;;;;;;;4.50;2.45;;;;;;;;;;8318775;28;20048;-76
2021/07/27 08:02:29;;;;;;;6.68;2.75;;;;;;;;;;8249583;28;20495;-76
2021/07/27 08:06:34;;;;;;;7.32;2.95;;;;;;;;;;8316687;28;20486;-75
2021/07/27 08:10:39;;;;;;;3.35;2.72;;;;;;;;;;8317611;28;20048;-75
2021/07/27 08:14:44;;;;;;;9.93;3.35;;;;;;;;;;8316106;28;20447;-74
2021/07/27 08:18:49;;;;;;;5.55;3.30;;;;;;;;;;8318350;28;20368;-74
2021/07/27 08:22:54;;;;;;;4.53;2.97;;;;;;;;;;8316523;28;20455;-74
2021/07/27 08:27:00;;;;;;;7.28;3.58;;;;;;;;;;8317410;28;20511;-74
2021/07/27 08:31:05;;;;;;;6.78;3.67;;;;;;;;;;8315938;28;20471;-74
2021/07/27 08:35:11;;;;;;;5.22;3.97;;;;;;;;;;8318154;28;20474;-74
2021/07/27 08:39:16;;;;;;;6.15;3.58;;;;;;;;;;8332360;28;20482;-74
2021/07/27 08:43:21;;;;;;;4.78;3.55;;;;;;;;;;8319040;28;20348;-72
2021/07/27 08:47:27;;;;;;;5.82;3.90;;;;;;;;;;8316527;28;20443;-73
2021/07/27 08:51:33;;;;;;;5.50;3.72;;;;;;;;;;8304444;28;20402;-73
2021/07/27 08:55:38;;;;;;;9.50;3.80;;;;;;;;;;8293892;28;20041;-73
2021/07/27 08:59:43;;;;;;;7.47;3.42;;;;;;;;;;8293712;28;20491;-72
2021/07/27 09:03:49;;;;;;;5.35;3.85;;;;;;;;;;8293230;28;20381;-73
2021/07/27 09:08:02;;;;;;;4.10;3.47;;;;;;;;;;8277211;28;20471;-73
2021/07/27 09:12:09;;;;;;;6.53;3.67;;;;;;;;;;8292424;28;20494;-73
2021/07/27 09:16:17;;;;;;;3.77;2.90;;;;;;;;;;8293744;28;20453;-73
2021/07/27 09:20:35;;;;;;;4.30;3.20;;;;;;;;;;8293511;28;20052;-74
2021/07/27 09:24:40;;;;;;;4.68;3.25;;;;;;;;;;8294383;28;20378;-73
2021/07/27 09:28:45;;;;;;;6.32;3.65;;;;;;;;;;8293367;28;20483;-73
2021/07/27 09:32:50;;;;;;;5.03;3.03;;;;;;;;;;8292804;28;20501;-73
2021/07/27 09:37:07;;;;;;;5.60;3.00;;;;;;;;;;8293878;28;20044;-72
2021/07/27 09:41:12;;;;;;;6.13;3.60;;;;;;;;;;8291109;28;20427;-72
2021/07/27 09:45:19;;;;;;;5.68;2.75;;;;;;;;;;8292648;28;20374;-72
2021/07/27 09:49:25;;;;;;;4.53;3.13;;;;;;;;;;8292900;28;20464;-72
2021/07/27 09:53:30;;;;;;;7.30;3.87;;;;;;;;;;8292734;28;20360;-72
2021/07/27 09:57:35;;;;;;;6.97;3.97;;;;;;;;;;8292271;28;20044;-72
2021/07/27 10:01:51;;;;;;;9.23;4.47;;;;;;;;;;8289778;28;20378;-72
2021/07/27 10:06:02;;;;;;;12.88;5.30;;;;;;;;;;8292171;28;20074;-71
2021/07/27 10:10:10;;;;;;;12.50;5.50;;;;;;;;;;8290987;28;20352;-71
2021/07/27 10:14:17;;;;;;;15.23;5.47;;;;;;;;;;8291829;28;20457;-71
2021/07/27 10:18:32;;;;;;;10.95;5.55;;;;;;;;;;8290589;28;20036;-71
2021/07/27 10:22:37;;;;;;;12.18;5.38;;;;;;;;;;8294563;28;20367;-71
2021/07/27 10:26:44;;;;;;;9.10;4.93;;;;;;;;;;8291540;28;20445;-71
2021/07/27 10:30:49;;;;;;;6.97;4.57;;;;;;;;;;8291309;28;20336;-71
2021/07/27 10:34:54;;;;;;;10.32;5.00;;;;;;;;;;8293866;28;20465;-71
2021/07/27 10:39:16;;;;;;;10.65;4.70;;;;;;;;;;8290378;28;20364;-72
2021/07/27 10:43:26;;;;;;;10.23;4.50;;;;;;;;;;8290780;28;20460;-71
2021/07/27 10:47:32;;;;;;;13.52;5.57;;;;;;;;;;8289893;28;20389;-73
2021/07/27 10:51:38;;;;;;;8.23;4.55;;;;;;;;;;8273714;28;20045;-71
2021/07/27 10:55:46;;;;;;;8.30;4.32;;;;;;;;;;8290434;28;20689;-72
2021/07/27 10:59:51;;;;;;;10.00;4.85;;;;;;;;;;8290842;28;20360;-72
2021/07/27 11:04:11;;;;;;;7.75;3.75;;;;;;;;;;8290436;28;20431;-72
2021/07/27 11:08:26;;;;;;;8.15;3.45;;;;;;;;;;8291218;28;20482;-72
2021/07/27 11:12:38;;;;;;;10.15;4.05;;;;;;;;;;8289744;28;20062;-71
2021/07/27 11:16:43;;;;;;;7.45;3.53;;;;;;;;;;8273247;28;20468;-72
2021/07/27 11:20:52;;;;;;;5.67;3.57;;;;;;;;;;8291090;28;20062;-72
2021/07/27 11:24:58;;;;;;;8.02;3.70;;;;;;;;;;8274095;28;20459;-72
2021/07/27 11:29:11;;;;;;;6.93;3.40;;;;;;;;;;8291563;28;20466;-72
2021/07/27 11:33:18;;;;;;;5.30;3.20;;;;;;;;;;8289101;28;20475;-71
2021/07/27 11:37:27;;;;;;;9.73;4.00;;;;;;;;;;8288488;28;20044;-73
2021/07/27 11:41:33;;;;;;;7.13;3.83;;;;;;;;;;8289239;28;20485;-72
2021/07/27 11:45:39;;;;;;;6.30;4.00;;;;;;;;;;8288862;28;20460;-72
2021/07/27 11:49:57;;;;;;;6.22;3.42;;;;;;;;;;8290388;28;20431;-72
2021/07/27 11:54:03;;;;;;;7.68;4.07;;;;;;;;;;8291904;28;20375;-72
2021/07/27 11:58:09;;;;;;;9.00;4.22;;;;;;;;;;8271526;28;20362;-72
2021/07/27 12:02:14;;;;;;;5.43;3.90;;;;;;;;;;8287120;28;20044;-72
2021/07/27 12:06:20;;;;;;;7.78;4.10;;;;;;;;;;8288321;28;20165;-73
2021/07/27 12:10:25;;;;;;;8.60;4.63;;;;;;;;;;8288779;28;20470;-72
2021/07/27 12:14:30;;;;;;;8.25;4.60;;;;;;;;;;8271380;28;20475;-72
2021/07/27 12:18:35;;;;;;;14.88;5.05;;;;;;;;;;8287423;28;20337;-71
2021/07/27 12:22:44;;;;;;;11.55;4.65;;;;;;;;;;8270784;28;20371;-73
2021/07/27 12:26:49;;;;;;;11.15;4.32;;;;;;;;;;8275655;28;20452;-72
2021/07/27 12:30:54;;;;;;;10.45;4.78;;;;;;;;;;8294454;28;20406;-71
2021/07/27 12:34:59;;;;;;;7.18;4.43;;;;;;;;;;8295032;28;20479;-72
2021/07/27 12:39:05;;;;;;;12.32;4.32;;;;;;;;;;8294288;28;20337;-72
2021/07/27 12:43:09;;;;;;;8.55;3.97;;;;;;;;;;8292763;28;20561;-71
2021/07/27 12:47:14;;;;;;;9.88;3.85;;;;;;;;;;8275671;28;20358;-71
2021/07/27 12:51:20;;;;;;;9.05;4.88;;;;;;;;;;8230897;28;20371;-72
2021/07/27 12:55:25;;;;;;;8.32;3.55;;;;;;;;;;8292697;28;20044;-72
2021/07/27 12:59:34;;;;;;;5.90;3.67;;;;;;;;;;8293937;28;20381;-72
2021/07/27 13:03:39;;;;;;;5.13;3.47;;;;;;;;;;8293855;28;20044;-73
2021/07/27 13:07:44;;;;;;;7.63;3.17;;;;;;;;;;8294325;28;20463;-71
2021/07/27 13:11:50;;;;;;;5.53;3.72;;;;;;;;;;8276253;28;20048;-71
2021/07/27 13:15:58;;;;;;;9.68;4.18;;;;;;;;;;8292756;28;20443;-72
2021/07/27 13:20:05;;;;;;;10.35;4.32;;;;;;;;;;8255681;28;20078;-72
2021/07/27 13:24:13;;;;;;;8.80;4.50;;;;;;;;;;8262553;28;20376;-71
2021/07/27 13:28:17;;;;;;;5.80;3.47;;;;;;;;;;8261767;28;20483;-71
2021/07/27 13:32:22;;;;;;;6.88;4.15;;;;;;;;;;8261920;28;20352;-72
2021/07/27 13:36:28;;;;;;;6.63;4.10;;;;;;;;;;8260787;28;20033;-72
2021/07/27 13:40:33;;;;;;;8.18;5.30;;;;;;;;;;8258731;28;20052;-72
2021/07/27 13:44:39;;;;;;;8.05;5.22;;;;;;;;;;8260302;28;20459;-72
2021/07/27 13:48:44;;;;;;;6.03;4.50;;;;;;;;;;8260157;28;20352;-71
2021/07/27 13:52:49;;;;;;;6.00;4.20;;;;;;;;;;8243230;28;20448;-71
2021/07/27 13:56:54;;;;;;;5.28;3.83;;;;;;;;;;8260170;28;20094;-72
2021/07/27 14:01:03;;;;;;;7.57;4.25;;;;;;;;;;8259069;28;20456;-72
2021/07/27 14:05:10;;;;;;;7.70;4.43;;;;;;;;;;8260218;28;20445;-72
2021/07/27 14:09:16;;;;;;;9.27;5.10;;;;;;;;;;8260703;28;20067;-71
2021/07/27 14:13:20;;;;;;;9.13;4.53;;;;;;;;;;8258775;28;20374;-71
2021/07/27 14:17:26;;;;;;;6.35;4.07;;;;;;;;;;8259773;28;20451;-72
2021/07/27 14:21:31;;;;;;;8.32;4.38;;;;;;;;;;8259863;28;20352;-71
2021/07/27 14:25:36;;;;;;;5.72;4.25;;;;;;;;;;8241293;28;20380;-72
2021/07/27 14:29:41;;;;;;;6.57;3.88;;;;;;;;;;8259526;28;20483;-73
2021/07/27 14:33:46;;;;;;;4.65;3.58;;;;;;;;;;8259079;28;20433;-72
2021/07/27 14:37:53;;;;;;;3.25;2.20;;;;;;;;;;8259175;28;20476;-72
2021/07/27 14:41:59;;;;;;;7.27;2.20;;;;;;;;;;8257001;28;20499;-72
2021/07/27 14:46:04;;;;;;;5.03;2.20;;;;;;;;;;8259509;28;20487;-72
2021/07/27 14:50:30;;;;;;;3.85;2.20;;;;;;;;;;8255832;28;20460;-73
2021/07/27 14:54:34;;;;;;;8.05;2.50;;;;;;;;;;8256186;28;20380;-72
2021/07/27 14:58:39;;;;;;;3.88;2.05;;;;;;;;;;8255869;28;20067;-71
2021/07/27 15:02:45;;;;;;;4.13;2.35;;;;;;;;;;8255578;28;20067;-72
2021/07/27 15:06:50;;;;;;;5.95;2.30;;;;;;;;;;8257349;28;20517;-72
2021/07/27 15:10:55;;;;;;;5.30;2.55;;;;;;;;;;8239998;28;20472;-73
2021/07/27 15:15:00;;;;;;;6.93;2.30;;;;;;;;;;8259252;28;20359;-72
2021/07/27 15:19:06;;;;;;;4.15;2.25;;;;;;;;;;8258109;28;20357;-71
2021/07/27 15:23:11;;;;;;;4.60;2.30;;;;;;;;;;8257258;28;20483;-72
2021/07/27 15:27:16;;;;;;;2.88;2.13;;;;;;;;;;8256907;28;20063;-71
2021/07/27 15:31:21;;;;;;;3.20;1.83;;;;;;;;;;8256743;28;20037;-73
2021/07/27 15:35:28;;;;;;;2.58;1.70;;;;;;;;;;8258173;28;20068;-72
2021/07/27 15:39:33;;;;;;;3.05;1.67;;;;;;;;;;8255407;28;20468;-71
2021/07/27 15:43:39;;;;;;;4.13;1.73;;;;;;;;;;8257495;28;20059;-72
2021/07/27 15:47:43;;;;;;;3.20;1.83;;;;;;;;;;8255025;28;20484;-71
2021/07/27 15:51:49;;;;;;;3.25;1.85;;;;;;;;;;8255978;28;20460;-72
2021/07/27 15:55:54;;;;;;;6.90;1.98;;;;;;;;;;8257037;28;20515;-72
2021/07/27 15:59:59;;;;;;;2.42;2.00;;;;;;;;;;8239222;28;20060;-72
2021/07/27 16:04:14;;;;;;;3.40;1.58;;;;;;;;;;8263937;28;20371;-72
2021/07/27 16:08:19;;;;;;;2.70;1.60;;;;;;;;;;8263001;28;20070;-72
2021/07/27 16:12:25;;;;;;;4.00;2.33;;;;;;;;;;8263430;28;20411;-72
2021/07/27 16:16:30;;;;;;;3.13;2.10;;;;;;;;;;8263305;28;20437;-72
2021/07/27 16:20:36;;;;;;;3.55;1.90;;;;;;;;;;8260745;28;20530;-72
2021/07/27 16:24:39;;;;;;;3.20;2.30;;;;;;;;;;8262193;28;20354;-72
2021/07/27 16:28:45;;;;;;;3.70;2.13;;;;;;;;;;8262531;28;20486;-72
2021/07/27 16:32:50;;;;;;;2.65;2.00;;;;;;;;;;8263536;28;20447;-71
2021/07/27 16:36:56;;;;;;;5.47;2.50;;;;;;;;;;8260562;28;20491;-72
2021/07/27 16:41:01;;;;;;;8.15;2.20;;;;;;;;;;8262885;28;20382;-72
2021/07/27 16:45:08;;;;;;;6.03;1.85;;;;;;;;;;8261881;28;20483;-71
2021/07/27 16:49:13;;;;;;;6.22;2.40;;;;;;;;;;8261180;28;20476;-72
2021/07/27 16:53:18;;;;;;;6.47;4.72;;;;;;;;;;8263666;28;20428;-72
2021/07/27 16:57:24;;;;;;;8.32;2.60;;;;;;;;;;8261274;28;20483;-72
2021/07/27 17:01:29;;;;;;;9.23;2.70;;;;;;;;;;8261744;28;20375;-71
2021/07/27 17:05:37;;;;;;;6.60;2.90;;;;;;;;;;8207322;28;20079;-71
2021/07/27 17:09:42;;;;;;;7.30;3.20;;;;;;;;;;8292910;28;20071;-73
2021/07/27 17:13:47;;;;;;;5.45;2.50;;;;;;;;;;8275478;28;20514;-71
2021/07/27 17:17:53;;;;;;;7.10;2.92;;;;;;;;;;8295153;28;20076;-72
2021/07/27 17:21:57;;;;;;;5.15;2.65;;;;;;;;;;8293237;28;20348;-74
2021/07/27 17:26:02;;;;;;;4.40;2.20;;;;;;;;;;8293309;28;20041;-72
2021/07/27 17:30:08;;;;;;;6.13;3.58;;;;;;;;;;8291575;28;20371;-72
2021/07/27 17:34:13;;;;;;;4.17;2.80;;;;;;;;;;8274906;28;20493;-73
2021/07/27 17:38:19;;;;;;;3.33;2.58;;;;;;;;;;8292983;28;20497;-71
2021/07/27 17:42:29;;;;;;;10.70;2.75;;;;;;;;;;8292621;28;20575;-71
2021/07/27 17:46:34;;;;;;;5.00;2.92;;;;;;;;;;8291973;28;20041;-73
2021/07/27 17:50:39;;;;;;;5.78;3.28;;;;;;;;;;8293885;28;20460;-72
2021/07/27 17:54:44;;;;;;;6.32;3.25;;;;;;;;;;8290455;28;20356;-72
2021/07/27 17:58:49;;;;;;;7.32;2.90;;;;;;;;;;8293869;28;20352;-72
2021/07/27 18:02:55;;;;;;;7.82;2.88;;;;;;;;;;8291573;28;20486;-71
2021/07/27 18:07:01;;;;;;;3.85;2.80;;;;;;;;;;8290582;28;20357;-71
2021/07/27 18:11:07;;;;;;;3.85;2.47;;;;;;;;;;8274665;28;20036;-71
2021/07/27 18:15:13;;;;;;;4.65;2.92;;;;;;;;;;8290743;28;20482;-72
2021/07/27 18:19:18;;;;;;;7.30;3.25;;;;;;;;;;8290652;28;20471;-71
2021/07/27 18:23:24;;;;;;;6.57;3.08;;;;;;;;;;8288778;28;20363;-71
2021/07/27 18:27:29;;;;;;;5.68;3.15;;;;;;;;;;8290690;28;20477;-71
2021/07/27 18:31:34;;;;;;;6.47;3.55;;;;;;;;;;8290233;28;20053;-71
2021/07/27 18:35:39;;;;;;;6.30;3.53;;;;;;;;;;8292932;28;20459;-71
2021/07/27 18:39:45;;;;;;;5.35;3.20;;;;;;;;;;8289181;28;20071;-71
2021/07/27 18:43:50;;;;;;;5.85;4.00;;;;;;;;;;8305878;28;20336;-72
2021/07/27 18:47:56;;;;;;;6.95;4.13;;;;;;;;;;8292599;28;20498;-72
2021/07/27 18:52:01;;;;;;;7.00;3.33;;;;;;;;;;8292307;28;20466;-72
2021/07/27 18:56:06;;;;;;;6.63;3.72;;;;;;;;;;8291096;28;20471;-72
2021/07/27 19:00:13;;;;;;;7.30;3.38;;;;;;;;;;8290665;28;20044;-73
2021/07/27 19:04:19;;;;;;;12.27;3.90;;;;;;;;;;8291735;28;20316;-71
2021/07/27 19:08:24;;;;;;;7.75;3.97;;;;;;;;;;8289833;28;20337;-71
2021/07/27 19:12:29;;;;;;;9.50;3.88;;;;;;;;;;8288909;28;20367;-71
2021/07/27 19:16:34;;;;;;;5.80;3.47;;;;;;;;;;8290001;28;20066;-72
2021/07/27 19:20:43;;;;;;;6.50;3.17;;;;;;;;;;8289287;28;20036;-72
2021/07/27 19:24:48;;;;;;;6.13;3.38;;;;;;;;;;8289274;28;20371;-71
2021/07/27 19:28:54;;;;;;;5.80;3.70;;;;;;;;;;8288979;28;20479;-71
2021/07/27 19:32:59;;;;;;;5.68;3.72;;;;;;;;;;8287801;28;20412;-72
2021/07/27 19:37:05;;;;;;;6.20;3.67;;;;;;;;;;8289741;28;20403;-71
2021/07/27 19:41:14;;;;;;;5.38;3.40;;;;;;;;;;8287244;28;20468;-71
2021/07/27 19:45:23;;;;;;;6.43;3.53;;;;;;;;;;8289942;28;20444;-71
2021/07/27 19:49:47;;;;;;;5.43;3.30;;;;;;;;;;8288852;28;20525;-72
2021/07/27 19:53:52;;;;;;;6.65;3.55;;;;;;;;;;8287359;28;20467;-72
2021/07/27 19:57:56;;;;;;;6.97;4.47;;;;;;;;;;8290907;28;20459;-71
2021/07/27 20:02:02;;;;;;;5.00;3.15;;;;;;;;;;8290262;28;20344;-72
2021/07/27 20:06:07;;;;;;;7.45;4.00;;;;;;;;;;8272007;28;20371;-71
2021/07/27 20:10:13;;;;;;;7.57;4.20;;;;;;;;;;8271564;28;20491;-71
2021/07/27 20:14:18;;;;;;;7.13;4.05;;;;;;;;;;8288539;28;20049;-72
2021/07/27 20:18:22;;;;;;;7.70;3.70;;;;;;;;;;8289326;28;20471;-72
2021/07/27 20:22:41;;;;;;;6.90;3.40;;;;;;;;;;8287759;28;20395;-72
2021/07/27 20:26:46;;;;;;;9.73;3.90;;;;;;;;;;8289392;28;20071;-71
2021/07/27 20:30:51;;;;;;;5.43;3.25;;;;;;;;;;8272053;28;20071;-72
2021/07/27 20:34:56;;;;;;;9.10;4.40;;;;;;;;;;8271589;28;20536;-72
2021/07/27 20:39:01;;;;;;;6.72;3.95;;;;;;;;;;8289428;28;20517;-72
2021/07/27 20:43:08;;;;;;;6.45;4.00;;;;;;;;;;8288863;28;20482;-73
2021/07/27 20:47:12;;;;;;;10.70;4.53;;;;;;;;;;8291642;28;20363;-71
2021/07/27 20:51:18;;;;;;;7.63;4.82;;;;;;;;;;8295232;28;20366;-72
2021/07/27 20:55:22;;;;;;;5.97;4.00;;;;;;;;;;8296539;28;20490;-71
2021/07/27 20:59:27;;;;;;;5.85;4.00;;;;;;;;;;8293730;28;20355;-72
2021/07/27 21:03:33;;;;;;;6.30;4.22;;;;;;;;;;8294999;28;20443;-72
2021/07/27 21:07:39;;;;;;;5.43;3.90;;;;;;;;;;8294205;28;20351;-71
2021/07/27 21:11:44;;;;;;;6.60;3.75;;;;;;;;;;8274774;28;20060;-71
2021/07/27 21:15:50;;;;;;;5.97;4.18;;;;;;;;;;8261299;28;20478;-72
2021/07/27 21:19:53;;;;;;;10.35;4.45;;;;;;;;;;8261002;28;20348;-71
2021/07/27 21:23:58;;;;;;;9.70;4.72;;;;;;;;;;8260249;28;20067;-72
2021/07/27 21:28:06;;;;;;;6.78;4.25;;;;;;;;;;8260624;28;20041;-72
2021/07/27 21:32:10;;;;;;;6.80;4.17;;;;;;;;;;8260980;28;20514;-72
2021/07/27 21:36:15;;;;;;;6.43;4.15;;;;;;;;;;8260994;28;20374;-71
2021/07/27 21:40:20;;;;;;;4.97;3.95;;;;;;;;;;8258975;28;20076;-72
2021/07/27 21:44:24;;;;;;;8.07;3.83;;;;;;;;;;8260271;28;20463;-72
2021/07/27 21:48:29;;;;;;;6.40;3.88;;;;;;;;;;8259862;28;20334;-71
2021/07/27 21:52:35;;;;;;;7.15;3.75;;;;;;;;;;8260534;28;20475;-72
2021/07/27 21:56:39;;;;;;;7.80;3.90;;;;;;;;;;8259476;28;20452;-71
2021/07/27 22:00:44;;;;;;;8.52;3.97;;;;;;;;;;8258169;28;20380;-72
2021/07/27 22:04:49;;;;;;;6.20;3.92;;;;;;;;;;8259779;28;20352;-72
2021/07/27 22:08:55;;;;;;;7.97;4.68;;;;;;;;;;8260791;28;20067;-71
2021/07/27 22:13:00;;;;;;;9.25;4.18;;;;;;;;;;8259529;28;20037;-73
2021/07/27 22:17:04;;;;;;;9.70;4.28;;;;;;;;;;8257962;28;20060;-71
2021/07/27 22:21:09;;;;;;;5.95;3.65;;;;;;;;;;8259172;28;20443;-71
2021/07/27 22:25:14;;;;;;;9.90;4.38;;;;;;;;;;8257578;28;20147;-71
2021/07/27 22:29:19;;;;;;;9.68;3.47;;;;;;;;;;8258792;28;20045;-72
2021/07/27 22:33:24;;;;;;;10.38;4.75;;;;;;;;;;8259164;28;20440;-72
2021/07/27 22:37:29;;;;;;;10.77;4.25;;;;;;;;;;8257482;28;20333;-72
2021/07/27 22:41:35;;;;;;;7.60;4.32;;;;;;;;;;8256469;28;20079;-72
2021/07/27 22:45:40;;;;;;;7.35;4.07;;;;;;;;;;8260732;28;20045;-72
2021/07/27 22:49:45;;;;;;;7.93;3.95;;;;;;;;;;8258590;28;20348;-71
2021/07/27 22:53:50;;;;;;;9.65;4.47;;;;;;;;;;8257532;28;20403;-72
2021/07/27 22:57:55;;;;;;;5.97;4.18;;;;;;;;;;8258305;28;20334;-72
2021/07/27 23:02:00;;;;;;;9.35;4.55;;;;;;;;;;8260442;28;20486;-72
2021/07/27 23:06:05;;;;;;;8.15;4.63;;;;;;;;;;8256359;28;20487;-71
2021/07/27 23:10:11;;;;;;;7.95;4.43;;;;;;;;;;8255614;28;20041;-73
2021/07/27 23:14:15;;;;;;;8.43;4.18;;;;;;;;;;8257105;28;20337;-71
2021/07/27 23:18:20;;;;;;;6.88;4.22;;;;;;;;;;8241032;28;20448;-71
2021/07/27 23:22:25;;;;;;;7.10;4.70;;;;;;;;;;8258058;28;20505;-72
2021/07/27 23:26:38;;;;;;;7.72;4.47;;;;;;;;;;8255483;28;20365;-72
2021/07/27 23:30:44;;;;;;;12.55;4.63;;;;;;;;;;8257915;28;20510;-72
2021/07/27 23:34:49;;;;;;;9.20;4.80;;;;;;;;;;8257886;28;20321;-72
2021/07/27 23:38:54;;;;;;;8.45;4.57;;;;;;;;;;8257151;28;20371;-73
2021/07/27 23:42:57;;;;;;;8.60;4.70;;;;;;;;;;8256223;28;20404;-71
2021/07/27 23:47:03;;;;;;;10.38;4.90;;;;;;;;;;8256879;28;20472;-72
2021/07/27 23:51:09;;;;;;;9.10;5.13;;;;;;;;;;8256750;28;20352;-72
2021/07/27 23:55:14;;;;;;;8.07;5.03;;;;;;;;;;8254419;28;20372;-72
2021/07/27 23:59:19;;;;;;;9.63;5.43;;;;;;;;;;8256540;28;20487;-72
